Time;durP1;ratioP1;P1;durP2;ratioP2;P2;SDS_P1;SDS_P2;PMS_P1;PMS_P2;Temp;Humidity;BMP_temperature;BMP_pressure;BME280_temperature;BME280_humidity;BME280_pressure;Samples;Min_cycle;Max_cycle;Signal;HPM_P1;HPM_P2
2022/11/09 00:00:52;;;;;;;2.95;1.55;;;14.00;99.90;;;12.73;76.36;99958.94;5068616;28;20370;-77
2022/11/09 00:03:18;;;;;;;3.92;1.40;;;13.90;99.90;;;12.72;76.69;99963.56;5068542;28;20035;-77
2022/11/09 00:05:55;;;;;;;2.72;1.50;;;13.90;99.90;;;12.72;76.81;99963.56;5068699;28;20468;-77
2022/11/09 00:08:21;;;;;;;2.92;1.40;;;13.90;99.90;;;12.65;77.85;99957.44;5068833;28;20074;-77
2022/11/09 00:10:46;;;;;;;2.72;1.33;;;13.90;99.90;;;12.63;77.72;99951.38;5068450;28;20064;-77
2022/11/09 00:13:12;;;;;;;3.03;1.55;;;13.80;99.90;;;12.65;78.31;99949.22;5050265;28;20040;-76
2022/11/09 00:15:38;;;;;;;3.30;1.33;;;13.80;99.90;;;12.86;76.35;99941.34;5069973;28;20032;-77
2022/11/09 00:18:04;;;;;;;4.07;1.60;;;14.00;99.90;;;13.01;75.13;99927.91;5068742;28;20040;-78
2022/11/09 00:20:29;;;;;;;3.97;1.65;;;14.20;99.90;;;13.16;74.24;99938.25;5069012;28;20040;-78
2022/11/09 00:22:56;;;;;;;5.00;1.48;;;14.30;99.90;;;13.20;74.10;99936.66;5054440;28;20021;-77
2022/11/09 00:25:22;;;;;;;4.60;1.40;;;14.40;99.90;;;13.27;73.56;99939.25;5048590;28;20132;-78
2022/11/09 00:27:47;;;;;;;3.80;1.55;;;14.50;99.90;;;13.28;73.34;99938.16;5048308;28;20033;-78
2022/11/09 00:30:13;;;;;;;3.60;1.38;;;14.50;99.90;;;13.33;73.82;99940.13;5030677;28;20095;-79
2022/11/09 00:32:39;;;;;;;3.20;1.58;;;14.50;99.90;;;13.36;72.74;99932.22;5048621;28;20036;-79
2022/11/09 00:35:06;;;;;;;3.72;1.50;;;14.60;99.90;;;13.38;72.93;99930.06;5066114;28;20532;-80
2022/11/09 00:37:33;;;;;;;2.92;1.45;;;14.60;99.90;;;13.32;73.25;99931.09;5050493;28;20032;-77
2022/11/09 00:39:59;;;;;;;2.50;1.30;;;14.60;99.90;;;13.33;73.61;99940.13;5050502;28;20048;-77
2022/11/09 00:42:26;;;;;;;2.78;1.55;;;14.60;99.90;;;13.20;74.34;99933.09;5068878;28;20198;-77
2022/11/09 00:44:51;;;;;;;5.15;1.52;;;14.50;99.90;;;13.13;75.56;99927.81;5068159;28;20024;-78
2022/11/09 00:47:17;;;;;;;2.78;1.27;;;14.40;99.90;;;13.06;76.02;99929.88;5050269;28;20031;-76
2022/11/09 00:49:43;;;;;;;2.08;1.20;;;14.30;99.90;;;12.93;77.28;99929.16;5033853;28;20039;-77
2022/11/09 00:52:09;;;;;;;3.22;1.50;;;14.20;99.90;;;12.89;77.95;99929.91;5050160;28;20396;-77
2022/11/09 00:54:35;;;;;;;3.13;1.55;;;14.10;99.90;;;12.89;78.07;99927.16;5049987;28;20028;-77
2022/11/09 00:57:00;;;;;;;4.28;1.50;;;14.10;99.90;;;12.73;78.91;99920.63;5067939;28;20515;-77
2022/11/09 00:59:27;;;;;;;4.63;1.73;;;14.00;99.90;;;12.76;78.73;99929.16;5050247;28;20573;-76
2022/11/09 01:01:53;;;;;;;3.20;1.48;;;14.00;99.90;;;12.83;77.62;99918.03;5067799;28;20044;-77
2022/11/09 01:04:19;;;;;;;5.10;1.63;;;14.00;99.90;;;12.75;79.41;99924.78;5050212;28;20085;-77
2022/11/09 01:06:45;;;;;;;4.32;1.45;;;14.00;99.90;;;12.61;80.72;99921.53;5067981;28;20181;-78
2022/11/09 01:09:11;;;;;;;3.13;1.40;;;13.90;99.90;;;12.54;81.69;99930.97;5050113;28;20039;-77
2022/11/09 01:11:37;;;;;;;3.63;1.73;;;13.80;99.90;;;12.42;82.55;99920.09;5049668;28;20040;-76
2022/11/09 01:14:03;;;;;;;2.67;1.50;;;13.70;99.90;;;12.44;82.55;99920.69;5040727;28;20436;-76
2022/11/09 01:16:29;;;;;;;4.15;1.55;;;13.60;99.90;;;12.33;83.45;99916.94;5046812;28;20048;-76
2022/11/09 01:18:57;;;;;;;3.83;1.88;;;13.60;99.90;;;12.28;83.99;99919.59;5055817;28;20025;-76
2022/11/09 01:21:24;;;;;;;;;;;13.50;99.90;;;12.25;84.17;99923.63;5058343;28;20051;-76
2022/11/09 01:23:50;;;;;;;2.50;1.27;;;13.50;99.90;;;12.29;83.62;99918.50;5025999;28;20436;-76
2022/11/09 01:26:16;;;;;;;4.63;1.65;;;13.50;99.90;;;12.22;84.22;99919.50;5062350;28;20036;-75
2022/11/09 01:28:42;;;;;;;2.50;1.27;;;13.40;99.90;;;12.26;83.06;99919.00;5044518;28;20029;-75
2022/11/09 01:31:19;;;;;;;3.10;1.58;;;13.40;99.90;;;12.29;83.26;99918.50;5060565;28;20028;-75
2022/11/09 01:33:45;;;;;;;3.70;1.30;;;13.50;99.90;;;12.28;82.81;99914.94;5044686;28;20017;-74
2022/11/09 01:36:21;;;;;;;3.72;1.50;;;13.50;99.90;;;12.34;81.98;99926.81;5060619;28;20112;-75
2022/11/09 01:38:48;;;;;;;4.82;1.50;;;13.50;99.90;;;12.36;82.43;99921.91;5058298;28;20131;-76
2022/11/09 01:41:24;;;;;;;4.28;1.25;;;13.60;99.90;;;12.34;82.20;99926.81;5061108;28;20464;-77
2022/11/09 01:44:18;;;;;;;3.85;1.50;;;13.50;99.90;;;12.37;81.91;99921.69;5059998;28;20028;-76
2022/11/09 01:47:00;;;;;;;2.42;1.27;;;13.60;99.90;;;12.34;81.82;99911.25;5062276;28;20074;-77
2022/11/09 01:49:46;;;;;;;3.97;1.40;;;13.60;99.90;;;12.44;81.12;99910.56;5062332;28;20028;-75
2022/11/09 01:52:21;;;;;;;3.70;1.40;;;13.60;99.90;;;12.50;80.55;99916.94;5062292;28;20077;-75
2022/11/09 01:54:54;;;;;;;3.47;1.40;;;13.70;99.90;;;12.52;80.55;99912.91;5061670;28;20024;-76
2022/11/09 01:57:32;;;;;;;2.90;1.23;;;13.70;99.90;;;12.55;80.30;99910.75;5059543;28;20025;-76
2022/11/09 02:00:06;;;;;;;2.63;1.35;;;13.80;99.90;;;12.54;80.23;99914.56;5061298;28;20504;-76
2022/11/09 02:02:52;;;;;;;2.50;1.30;;;13.80;99.90;;;12.56;80.37;99912.41;5067970;28;20032;-75
2022/11/09 02:05:26;;;;;;;3.42;1.38;;;13.80;99.90;;;12.58;80.49;99908.31;5042799;28;20549;-74
2022/11/09 02:07:56;;;;;;;3.15;1.33;;;13.80;99.90;;;12.61;80.36;99909.75;5045683;28;20119;-75
2022/11/09 02:10:53;;;;;;;3.22;1.20;;;13.80;99.90;;;12.60;80.38;99911.66;5043233;28;20029;-76
2022/11/09 02:13:23;;;;;;;2.92;1.40;;;13.80;99.90;;;12.61;80.57;99916.06;5048713;28;20158;-76
2022/11/09 02:15:49;;;;;;;3.83;1.30;;;13.80;99.90;;;12.68;79.21;99899.47;5058383;28;20025;-76
2022/11/09 02:18:16;;;;;;;3.20;1.20;;;13.90;99.90;;;12.68;79.36;99912.31;5060289;28;20115;-76
2022/11/09 02:20:55;;;;;;;3.05;1.30;;;13.90;99.90;;;12.84;78.01;99913.41;5049861;28;20120;-77
2022/11/09 02:23:24;;;;;;;2.03;1.27;;;14.00;99.90;;;12.85;78.41;99915.88;5070761;28;20459;-76
2022/11/09 02:26:08;;;;;;;3.38;1.33;;;14.00;99.90;;;12.82;78.39;99915.56;5052249;28;20658;-76
2022/11/09 02:28:38;;;;;;;3.65;1.40;;;14.00;99.90;;;12.79;79.19;99914.97;5043003;28;20028;-77
2022/11/09 02:31:10;;;;;;;3.30;1.30;;;14.00;99.90;;;12.78;78.87;99912.47;5059825;28;20048;-76
2022/11/09 02:34:01;;;;;;;2.88;1.38;;;14.00;99.90;;;12.78;78.79;99904.28;5040249;28;20033;-76
2022/11/09 02:36:27;;;;;;;2.35;1.30;;;14.00;99.90;;;12.77;79.36;99908.94;5043317;28;20027;-77
2022/11/09 02:38:55;;;;;;;4.18;1.83;;;14.00;99.90;;;12.76;79.68;99901.81;5048953;28;20040;-76
2022/11/09 02:41:23;;;;;;;3.15;1.40;;;14.00;99.90;;;12.67;80.39;99903.28;5050500;28;20033;-75
2022/11/09 02:43:53;;;;;;;3.35;1.40;;;13.90;99.90;;;12.65;80.70;99900.81;5041733;28;20028;-75
2022/11/09 02:46:28;;;;;;;4.00;1.23;;;13.90;99.90;;;12.64;81.29;99904.63;5038266;28;20040;-77
2022/11/09 02:48:54;;;;;;;2.60;1.30;;;13.90;99.90;;;12.67;81.01;99900.53;5048348;28;20039;-76
2022/11/09 02:51:20;;;;;;;3.08;1.38;;;13.90;99.90;;;12.64;81.22;99901.88;5040890;28;20488;-76
2022/11/09 02:53:47;;;;;;;3.30;1.25;;;13.80;99.90;;;12.67;81.29;99892.31;5049837;28;20063;-76
2022/11/09 02:56:13;;;;;;;3.60;1.45;;;13.90;99.90;;;12.59;82.27;99890.81;5047846;28;20021;-76
2022/11/09 02:58:39;;;;;;;2.88;1.52;;;13.80;99.90;;;12.62;81.94;99895.00;5057884;28;20028;-75
2022/11/09 03:01:05;;;;;;;4.00;1.48;;;13.80;99.90;;;12.61;82.41;99904.28;5049728;28;20025;-76
2022/11/09 03:03:31;;;;;;;3.03;1.35;;;13.80;99.90;;;12.55;82.48;99875.19;5058385;28;20029;-78
2022/11/09 03:05:57;;;;;;;2.80;1.33;;;13.80;99.90;;;12.68;81.62;99890.44;5057765;28;20068;-76
2022/11/09 03:08:23;;;;;;;3.83;1.35;;;13.90;99.90;;;12.71;81.04;99888.00;5041568;28;20111;-76
2022/11/09 03:10:50;;;;;;;4.93;1.20;;;13.90;99.90;;;12.75;80.82;99896.56;5038695;28;20047;-76
2022/11/09 03:13:16;;;;;;;3.50;1.40;;;13.90;99.90;;;12.77;80.29;99889.78;5058988;28;20033;-77
2022/11/09 03:15:41;;;;;;;3.20;1.40;;;14.00;99.90;;;12.75;80.91;99883.72;5039481;28;20033;-76
2022/11/09 03:18:07;;;;;;;3.47;1.55;;;14.00;99.90;;;12.80;80.63;99892.00;5041045;28;20033;-77
2022/11/09 03:20:33;;;;;;;4.80;1.52;;;14.00;99.90;;;12.84;80.24;99891.50;5040350;28;20025;-76
2022/11/09 03:22:59;;;;;;;4.72;1.40;;;14.00;99.90;;;12.87;80.32;99888.25;5060342;28;20132;-77
2022/11/09 03:25:27;;;;;;;2.97;1.25;;;14.10;99.90;;;12.85;80.72;99876.72;5036938;28;20024;-77
2022/11/09 03:28:04;;;;;;;4.40;1.50;;;14.00;99.90;;;12.88;79.98;99879.81;5023502;28;20039;-77
2022/11/09 03:30:32;;;;;;;3.17;1.25;;;14.10;99.90;;;12.77;81.34;99900.72;5056058;28;20032;-77
2022/11/09 03:33:01;;;;;;;2.67;1.30;;;14.00;99.90;;;12.67;82.41;99900.53;5041918;28;20083;-77
2022/11/09 03:35:28;;;;;;;2.65;1.30;;;13.90;99.90;;;12.58;82.90;99908.31;5046850;28;20040;-77
2022/11/09 03:37:53;;;;;;;3.65;1.50;;;13.90;99.90;;;12.62;82.63;99895.84;5039239;28;20036;-76
2022/11/09 03:40:20;;;;;;;3.22;1.42;;;13.90;99.90;;;12.61;83.06;99904.28;5040738;28;20151;-75
2022/11/09 03:42:48;;;;;;;3.10;1.10;;;13.80;99.90;;;12.57;82.53;99903.13;5038910;28;20433;-75
2022/11/09 03:45:15;;;;;;;3.40;1.45;;;13.80;99.90;;;12.66;82.39;99907.09;5042014;28;20084;-76
2022/11/09 03:47:42;;;;;;;2.58;1.38;;;13.80;99.90;;;12.52;83.90;99896.50;5057144;28;20066;-76
2022/11/09 03:50:10;;;;;;;2.90;1.35;;;13.70;99.90;;;12.41;84.64;99897.38;5059789;28;20032;-76
2022/11/09 03:52:36;;;;;;;3.63;1.40;;;13.70;99.90;;;12.34;85.58;99897.56;5057687;28;20149;-77
2022/11/09 03:55:04;;;;;;;3.22;1.30;;;13.50;99.90;;;12.38;85.25;99906.09;5058863;28;20579;-76
2022/11/09 03:57:29;;;;;;;;;;;13.60;99.90;;;12.38;85.60;99906.09;5057764;28;20473;-76
2022/11/09 03:59:55;;;;;;;4.03;1.38;;;13.50;99.90;;;12.44;85.55;99910.56;5057613;28;19924;-76
2022/11/09 04:02:21;;;;;;;3.25;1.60;;;13.60;99.90;;;12.51;84.45;99905.78;5058273;28;20052;-77
2022/11/09 04:04:47;;;;;;;4.97;1.52;;;13.70;99.90;;;12.62;83.90;99909.50;5055571;28;20029;-76
2022/11/09 04:07:13;;;;;;;3.35;1.55;;;13.70;99.90;;;12.63;84.05;99907.59;5057720;28;20028;-76
2022/11/09 04:09:39;;;;;;;3.33;1.48;;;13.80;99.90;;;12.74;83.42;99900.38;5057584;28;20029;-76
2022/11/09 04:12:05;;;;;;;2.80;1.30;;;13.90;99.90;;;12.75;83.07;99894.66;5055961;28;20454;-76
2022/11/09 04:14:31;;;;;;;2.33;1.13;;;13.90;99.90;;;12.80;82.84;99893.91;5058146;28;20056;-76
2022/11/09 04:16:56;;;;;;;3.05;1.30;;;14.00;99.90;;;12.82;83.10;99896.41;5057846;28;20028;-75
2022/11/09 04:19:22;;;;;;;2.30;1.20;;;14.00;99.90;;;12.75;83.65;99896.56;5056545;28;20045;-75
2022/11/09 04:21:48;;;;;;;2.17;1.23;;;14.00;99.90;;;12.70;84.32;99891.81;5058071;28;20098;-76
2022/11/09 04:24:14;;;;;;;3.60;1.25;;;13.90;99.90;;;12.75;83.85;99896.56;5057472;28;20044;-75
2022/11/09 04:26:40;;;;;;;3.67;1.55;;;13.90;99.90;;;12.76;83.84;99899.06;5058969;28;20052;-76
2022/11/09 04:29:06;;;;;;;2.30;1.10;;;14.00;99.90;;;12.76;83.94;99890.84;5068295;28;20198;-76
2022/11/09 04:31:32;;;;;;;3.28;1.00;;;14.00;99.90;;;12.75;84.27;99891.09;5068399;28;20036;-76
2022/11/09 04:33:58;;;;;;;1.90;1.00;;;13.90;99.90;;;12.80;83.74;99891.16;5068693;28;20032;-75
2022/11/09 04:36:24;;;;;;;3.10;1.08;;;14.00;99.90;;;12.93;82.56;99888.09;5068456;28;20032;-76
2022/11/09 04:38:49;;;;;;;2.30;1.00;;;14.10;99.90;;;12.95;82.89;99894.16;5068142;28;20140;-77
2022/11/09 04:41:15;;;;;;;2.45;1.08;;;14.10;99.90;;;12.95;82.63;99885.09;5068822;28;20471;-77
2022/11/09 04:43:41;;;;;;;1.02;0.75;;;14.20;99.90;;;12.93;83.04;99888.09;5068296;28;20021;-77
2022/11/09 04:46:07;;;;;;;2.17;1.00;;;14.10;99.90;;;12.91;82.97;99887.50;5064268;28;20709;-76
2022/11/09 04:48:33;;;;;;;2.38;1.10;;;14.20;99.90;;;12.86;83.89;99897.56;5068780;28;20480;-75
2022/11/09 04:51:09;;;;;;;2.25;1.13;;;14.10;99.90;;;12.87;84.17;99888.25;5068628;28;20154;-75
2022/11/09 04:53:36;;;;;;;2.83;1.23;;;14.10;99.90;;;12.84;84.40;99886.84;5050640;28;20524;-76
2022/11/09 04:56:03;;;;;;;3.78;1.00;;;14.00;99.90;;;12.78;85.05;99887.84;5068177;28;20047;-77
2022/11/09 04:58:29;;;;;;;2.03;1.10;;;14.00;99.90;;;12.76;85.43;99888.13;5069990;28;20032;-76
2022/11/09 05:01:03;;;;;;;2.65;1.10;;;13.90;99.90;;;12.65;87.03;99889.84;5072331;28;20028;-78
2022/11/09 05:03:29;;;;;;;2.90;1.00;;;13.90;99.90;;;12.60;87.27;99887.03;5072801;28;20032;-77
2022/11/09 05:05:55;;;;;;;4.22;1.30;;;13.90;99.90;;;12.51;88.27;99891.25;5072067;28;20047;-76
2022/11/09 05:08:20;;;;;;;4.65;1.10;;;13.80;99.90;;;12.36;89.86;99892.66;5071927;28;20036;-75
2022/11/09 05:10:46;;;;;;;3.88;1.23;;;13.60;99.90;;;12.27;90.66;99894.13;5072065;28;20060;-76
2022/11/09 05:13:13;;;;;;;1.70;1.00;;;13.60;99.90;;;12.22;92.03;99897.63;5072338;28;20074;-76
2022/11/09 05:15:39;;;;;;;2.92;1.30;;;13.40;99.90;;;12.19;92.32;99900.00;5072093;28;20469;-76
2022/11/09 05:18:06;;;;;;;2.75;1.20;;;13.40;99.90;;;12.13;93.54;99898.25;5071867;28;20067;-76
2022/11/09 05:20:33;;;;;;;3.25;1.50;;;13.40;99.90;;;12.01;94.83;99899.13;5063466;28;20501;-76
2022/11/09 05:25:45;;;;;;;3.13;1.20;;;13.20;99.90;;;11.82;96.66;99890.28;5072138;28;20112;-77
2022/11/09 05:28:11;;;;;;;3.22;1.30;;;13.10;99.90;;;11.73;98.31;99894.47;5071652;28;20454;-76
2022/11/09 05:30:38;;;;;;;3.83;1.50;;;13.00;99.90;;;11.82;97.90;99882.09;5069224;28;20184;-75
2022/11/09 05:33:04;;;;;;;3.35;1.20;;;13.00;99.90;;;11.68;98.72;99884.28;5068704;28;20042;-77
2022/11/09 05:35:32;;;;;;;5.15;1.30;;;12.90;99.90;;;11.62;100.00;99890.72;5070797;28;20111;-78
2022/11/09 05:37:58;;;;;;;3.13;1.10;;;12.90;99.90;;;11.71;100.00;99885.69;5070166;28;20505;-77
2022/11/09 05:40:24;;;;;;;2.15;1.20;;;12.90;99.90;;;11.80;99.54;99897.88;5068399;28;20028;-77
2022/11/09 05:42:49;;;;;;;4.03;1.20;;;12.90;99.90;;;11.80;99.53;99887.81;5067407;28;20796;-77
2022/11/09 05:45:17;;;;;;;3.05;1.50;;;13.00;99.90;;;11.72;99.87;99892.81;5062709;28;20020;-77
2022/11/09 05:47:44;;;;;;;2.58;1.30;;;13.00;99.90;;;11.70;100.00;99894.97;5048403;28;20452;-78
2022/11/09 05:50:13;;;;;;;2.97;1.23;;;12.90;99.90;;;11.70;100.00;99903.97;5070961;28;20409;-79
2022/11/09 05:52:39;;;;;;;2.25;1.10;;;12.90;99.90;;;11.68;100.00;99903.41;5071164;28;20085;-78
2022/11/09 05:55:06;;;;;;;2.03;1.05;;;12.90;99.90;;;11.61;100.00;99898.06;5068923;28;20479;-77
2022/11/09 05:57:32;;;;;;;2.75;1.10;;;12.90;99.90;;;11.71;100.00;99904.81;5070732;28;20051;-78
2022/11/09 05:59:58;;;;;;;4.78;1.83;;;12.90;99.90;;;11.74;100.00;99907.06;5070737;28;20477;-80
2022/11/09 06:02:24;;;;;;;4.45;1.20;;;13.00;99.90;;;11.71;100.00;99913.03;5066738;28;20044;-76
2022/11/09 06:04:49;;;;;;;3.60;1.10;;;13.00;99.90;;;11.71;100.00;99922.03;5066881;28;20147;-77
2022/11/09 06:07:15;;;;;;;4.35;1.45;;;12.90;99.90;;;11.63;100.00;99920.50;5068188;28;20481;-77
2022/11/09 06:09:41;;;;;;;5.82;1.60;;;12.90;99.90;;;11.51;100.00;99920.53;5069272;28;20381;-78
2022/11/09 06:12:07;;;;;;;2.55;1.42;;;12.80;99.90;;;11.40;100.00;99917.81;5070584;28;20686;-86
2022/11/09 06:14:33;;;;;;;3.97;1.50;;;12.70;99.90;;;11.31;100.00;99926.38;5053287;28;20040;-84
2022/11/09 06:16:59;;;;;;;2.65;1.40;;;12.60;99.90;;;11.33;100.00;99937.91;5072308;28;20041;-79
2022/11/09 06:19:24;;;;;;;3.83;1.40;;;12.60;99.90;;;11.56;100.00;99943.59;5067338;28;20036;-83
2022/11/09 06:21:50;;;;;;;2.25;1.20;;;12.70;99.90;;;11.53;100.00;99933.97;5050605;28;20326;-83
2022/11/09 06:24:16;;;;;;;2.35;1.33;;;12.80;99.90;;;11.50;100.00;99945.38;5050521;28;20143;-82
2022/11/09 06:26:42;;;;;;;2.83;1.25;;;12.70;99.90;;;11.52;100.00;99941.31;5048683;28;20519;-80
2022/11/09 06:29:08;;;;;;;3.53;1.33;;;12.70;99.90;;;11.46;100.00;99934.09;5049788;28;20515;-82
2022/11/09 06:31:34;;;;;;;3.22;1.40;;;12.70;99.90;;;11.41;100.00;99933.97;5049797;28;20033;-81
2022/11/09 06:34:00;;;;;;;3.47;1.60;;;12.70;99.90;;;11.37;100.00;99946.47;5050064;28;20095;-80
2022/11/09 06:36:26;;;;;;;2.30;1.35;;;12.60;99.90;;;11.56;100.00;99944.41;5050374;28;20057;-80
2022/11/09 06:38:52;;;;;;;3.70;1.30;;;12.70;99.90;;;11.61;100.00;99939.03;5049677;28;20134;-81
2022/11/09 06:41:18;;;;;;;6.82;1.77;;;12.80;99.90;;;11.69;100.00;99943.31;5049673;28;20499;-80
2022/11/09 06:43:45;;;;;;;4.70;1.60;;;12.90;99.90;;;11.84;100.00;99940.06;5055554;28;20025;-79
2022/11/09 06:46:11;;;;;;;4.57;1.30;;;13.00;99.90;;;11.93;100.00;99954.16;5069744;28;20091;-78
2022/11/09 06:48:38;;;;;;;4.80;1.60;;;13.10;99.90;;;11.85;100.00;99940.91;5069402;28;20031;-78
2022/11/09 06:51:05;;;;;;;2.72;1.50;;;13.10;99.90;;;11.98;100.00;99950.72;5069516;28;20048;-84
2022/11/09 06:53:34;;;;;;;3.90;1.70;;;13.10;99.90;;;12.03;100.00;99953.59;5069744;28;20566;-81
2022/11/09 06:56:02;;;;;;;4.10;1.55;;;13.20;99.90;;;12.02;100.00;99949.19;5068860;28;20113;-81
2022/11/09 06:58:28;;;;;;;;;;;13.20;99.90;;;12.07;100.00;99949.28;5061606;28;20032;-80
2022/11/09 07:00:54;;;;;;;2.22;1.33;;;13.30;99.90;;;12.06;100.00;99950.34;5069489;28;20268;-80
2022/11/09 07:03:42;;;;;;;3.10;1.40;;;13.30;99.90;;;12.09;100.00;99952.59;5068352;28;20029;-86
2022/11/09 07:06:16;;;;;;;3.60;1.48;;;13.30;99.90;;;12.19;100.00;99951.97;5068484;28;20047;-83
2022/11/09 07:08:42;;;;;;;5.15;1.35;;;13.40;99.90;;;12.30;100.00;99953.00;5069914;28;20021;-81
2022/11/09 07:11:12;;;;;;;3.67;1.52;;;13.50;99.90;;;12.33;100.00;99957.97;5070384;28;20041;-84
2022/11/09 07:13:39;;;;;;;2.80;1.23;;;13.60;99.90;;;12.41;100.00;99954.00;5069786;28;20093;-84
2022/11/09 07:16:06;;;;;;;3.25;1.67;;;13.60;99.90;;;12.46;100.00;99960.38;5050901;28;20052;-81
2022/11/09 07:18:33;;;;;;;4.65;1.50;;;13.70;99.90;;;12.50;100.00;99960.72;5068548;28;20044;-82
2022/11/09 07:20:59;;;;;;;2.15;1.20;;;13.70;99.90;;;12.55;100.00;99971.75;5069222;28;20115;-80
2022/11/09 07:23:25;;;;;;;2.70;1.40;;;13.80;99.90;;;12.61;100.00;99973.53;5068811;28;20035;-83
2022/11/09 07:25:51;;;;;;;2.85;1.55;;;13.80;99.90;;;12.62;100.00;99971.59;5068513;28;20188;-84
2022/11/09 07:28:17;;;;;;;3.05;1.40;;;13.80;99.90;;;12.61;100.00;99968.06;5068933;28;20074;-83
2022/11/09 07:30:43;;;;;;;4.13;1.40;;;13.80;99.90;;;12.63;100.00;99976.00;5069502;28;20029;-83
2022/11/09 07:33:19;;;;;;;3.88;1.63;;;13.90;99.90;;;12.63;100.00;99965.06;5070177;28;20416;-82
2022/11/09 07:35:45;;;;;;;3.72;1.40;;;13.90;99.90;;;12.69;100.00;99964.06;5074893;28;20058;-83
2022/11/09 07:38:14;;;;;;;2.60;1.30;;;13.90;99.90;;;12.76;99.59;99964.75;5075503;28;20039;-83
2022/11/09 07:40:40;;;;;;;2.63;1.20;;;14.00;99.90;;;12.82;99.16;99965.63;5071350;28;20040;-83
2022/11/09 07:43:07;;;;;;;3.88;1.42;;;14.00;99.90;;;12.91;97.96;99961.44;5070838;28;20263;-86
2022/11/09 07:45:36;;;;;;;4.05;1.63;;;14.10;99.90;;;12.95;97.48;99959.00;5053358;28;20489;-84
2022/11/09 07:48:07;;;;;;;4.40;1.60;;;14.20;99.90;;;13.07;96.87;99973.44;5070867;28;20163;-85
2022/11/09 07:50:34;;;;;;;6.03;1.77;;;14.20;99.90;;;13.19;95.90;99961.56;5071553;28;20093;-83
2022/11/09 07:53:02;;;;;;;3.00;1.55;;;14.40;99.90;;;13.31;94.55;99961.47;5074152;28;20041;-83
2022/11/09 07:55:29;;;;;;;4.32;1.85;;;14.50;99.90;;;13.41;94.73;99971.75;5083892;28;20051;-82
2022/11/09 07:58:01;;;;;;;4.57;1.52;;;14.60;99.90;;;13.50;93.29;99975.72;5078717;28;20032;-81
2022/11/09 08:00:31;;;;;;;4.55;2.00;;;14.70;99.90;;;13.57;92.73;99979.13;5071821;28;20038;-82
2022/11/09 08:02:57;;;;;;;5.38;1.67;;;14.80;99.90;;;13.55;92.96;99984.03;5070558;28;20021;-81
2022/11/09 08:05:23;;;;;;;4.05;1.60;;;14.80;99.90;;;13.57;92.23;99968.16;5068904;28;20048;-82
2022/11/09 08:07:55;;;;;;;4.55;1.73;;;14.80;99.90;;;13.62;92.03;99987.41;5069980;28;20396;-79
2022/11/09 08:10:25;;;;;;;3.72;1.40;;;14.80;99.90;;;13.61;92.01;99993.13;5069624;28;20147;-81
2022/11/09 08:13:04;;;;;;;2.10;1.40;;;14.90;99.90;;;13.56;91.92;99984.84;5070662;28;20478;-81
2022/11/09 08:15:31;;;;;;;3.40;1.58;;;14.80;99.90;;;13.56;92.12;99985.69;5069406;28;20108;-81
2022/11/09 08:18:12;;;;;;;4.43;1.55;;;14.80;99.90;;;13.54;92.71;99993.34;5069820;28;20036;-83
2022/11/09 08:20:38;;;;;;;2.80;1.20;;;14.80;99.90;;;13.54;92.21;99989.75;5051383;28;20025;-84
2022/11/09 08:23:05;;;;;;;2.85;1.20;;;14.80;99.90;;;13.56;92.75;100004.03;5069304;28;20537;-84
2022/11/09 08:25:35;;;;;;;2.33;1.10;;;14.80;99.90;;;13.57;91.85;100005.69;5069608;28;20033;-81
2022/11/09 08:28:02;;;;;;;3.53;1.40;;;14.80;99.90;;;13.55;92.53;100005.13;5070165;28;20043;-81
2022/11/09 08:30:28;;;;;;;3.88;1.40;;;14.80;99.90;;;13.55;91.78;100005.13;5086341;28;20023;-82
2022/11/09 08:32:54;;;;;;;3.95;1.23;;;14.80;99.90;;;13.55;92.30;100003.22;5078201;28;20041;-84
2022/11/09 08:35:22;;;;;;;2.45;1.15;;;14.80;99.90;;;13.61;92.04;100002.19;5068901;28;20094;-83
2022/11/09 08:37:51;;;;;;;3.90;1.20;;;14.80;99.90;;;13.60;91.49;100003.28;5068694;28;20028;-83
2022/11/09 08:40:25;;;;;;;3.40;1.50;;;14.80;99.90;;;13.75;90.29;100007.31;5068929;28;20048;-82
2022/11/09 08:42:52;;;;;;;3.42;1.10;;;14.90;99.90;;;13.78;90.31;100006.78;5068616;28;20021;-82
2022/11/09 08:45:19;;;;;;;4.15;1.30;;;15.00;99.90;;;13.80;90.06;100012.88;5068875;28;20054;-79
2022/11/09 08:47:45;;;;;;;3.58;1.00;;;15.00;99.90;;;13.79;90.50;100005.69;5051676;28;20476;-81
2022/11/09 08:50:14;;;;;;;4.05;1.52;;;15.00;99.90;;;13.84;90.52;100013.19;5069044;28;20020;-81
2022/11/09 08:52:40;;;;;;;2.70;1.10;;;15.00;99.90;;;13.80;90.69;100010.13;5068987;28;20488;-81
2022/11/09 08:55:07;;;;;;;2.28;1.10;;;15.00;99.90;;;13.73;92.77;100018.53;5068038;28;20044;-81
2022/11/09 08:57:33;;;;;;;2.58;0.98;;;15.00;99.90;;;13.54;96.34;100023.50;5051053;28;20560;-81
2022/11/09 08:59:58;;;;;;;4.60;1.70;;;14.80;99.90;;;13.22;100.00;100015.84;5069311;28;20040;-84
2022/11/09 09:02:24;;;;;;;1.95;1.00;;;14.60;99.90;;;12.87;100.00;100006.81;5051761;28;20091;-82
2022/11/09 09:04:50;;;;;;;4.03;1.40;;;14.30;99.90;;;12.64;100.00;100003.13;5065982;28;20032;-82
2022/11/09 09:07:16;;;;;;;3.00;1.10;;;14.10;99.90;;;12.56;100.00;100016.38;5072625;28;20106;-83
2022/11/09 09:09:43;;;;;;;4.65;1.02;;;13.90;99.90;;;12.55;100.00;100015.53;5071235;28;20025;-83
2022/11/09 09:12:09;;;;;;;1.85;1.10;;;13.80;99.90;;;12.54;100.00;100004.84;5051706;28;20078;-87
2022/11/09 09:14:35;;;;;;;2.25;0.93;;;13.80;99.90;;;12.48;100.00;100006.66;5070228;28;20071;-84
2022/11/09 09:17:01;;;;;;;2.33;1.48;;;13.70;99.90;;;12.29;100.00;100008.75;5069315;28;20052;-84
2022/11/09 09:19:27;;;;;;;2.17;1.15;;;13.60;99.90;;;12.19;100.00;100006.66;5068864;28;20033;-85
2022/11/09 09:21:53;;;;;;;3.92;1.60;;;13.50;99.90;;;12.11;100.00;100010.59;5068722;28;20084;-83
2022/11/09 09:24:20;;;;;;;4.22;1.70;;;13.40;99.90;;;12.11;100.00;100010.59;5069223;28;20237;-82
2022/11/09 09:26:46;;;;;;;3.58;1.10;;;13.40;99.90;;;12.06;100.00;100011.31;5079172;28;20029;-81
2022/11/09 09:29:12;;;;;;;3.33;1.10;;;13.40;99.90;;;12.03;100.00;100013.72;5080456;28;20024;-84
2022/11/09 09:31:41;;;;;;;3.00;1.27;;;13.30;99.90;;;11.98;100.00;100005.38;5068417;28;20033;-82
2022/11/09 09:34:07;;;;;;;2.20;1.10;;;13.30;99.90;;;11.96;100.00;100007.53;5068623;28;20646;-82
2022/11/09 09:36:34;;;;;;;2.70;1.02;;;13.30;99.90;;;11.88;100.00;100009.56;5068669;28;20048;-82
2022/11/09 09:39:00;;;;;;;2.25;1.05;;;13.20;99.90;;;11.94;100.00;100010.50;5068354;28;20182;-82
2022/11/09 09:41:55;;;;;;;3.33;1.20;;;13.20;99.90;;;11.99;100.00;100020.72;5069004;28;20028;-82
2022/11/09 09:44:36;;;;;;;3.55;1.30;;;13.20;99.90;;;12.00;100.00;100015.00;5069465;28;20024;-82
2022/11/09 09:47:43;;;;;;;2.97;1.05;;;13.30;99.90;;;12.03;100.00;100030.13;5073821;28;20047;-85
2022/11/09 09:50:21;;;;;;;3.13;1.00;;;13.30;99.90;;;12.03;100.00;100038.31;5073755;28;20548;-80
2022/11/09 09:53:09;;;;;;;1.95;0.80;;;13.30;99.90;;;11.96;100.00;100040.34;5073888;28;20040;-83
2022/11/09 09:55:40;;;;;;;2.03;0.88;;;13.30;99.90;;;11.89;100.00;100033.06;5072546;28;20037;-83
2022/11/09 09:58:30;;;;;;;3.60;1.30;;;13.20;99.90;;;11.79;100.00;100035.59;5071933;28;20109;-82
2022/11/09 10:01:14;;;;;;;4.78;0.90;;;13.10;99.90;;;11.70;100.00;100028.84;5069082;28;20058;-81
2022/11/09 10:03:40;;;;;;;3.80;1.00;;;13.00;99.90;;;11.65;100.00;100024.91;5073877;28;20021;-84
2022/11/09 10:06:36;;;;;;;4.35;1.15;;;13.00;99.90;;;11.64;100.00;100031.44;5071859;28;20049;-82
2022/11/09 10:09:26;;;;;;;2.38;1.02;;;12.90;99.90;;;11.58;100.00;100035.13;5072361;28;20098;-81
2022/11/09 10:12:20;;;;;;;3.60;1.10;;;12.90;99.90;;;11.55;100.00;100030.16;5071742;28;20154;-84
2022/11/09 10:14:59;;;;;;;3.60;1.13;;;12.80;99.90;;;11.54;100.00;100024.91;5071719;28;20086;-83
2022/11/09 10:17:40;;;;;;;3.92;0.93;;;12.80;99.90;;;11.49;100.00;100026.47;5072594;28;20033;-83
2022/11/09 10:20:56;;;;;;;3.05;0.88;;;12.80;99.90;;;11.51;100.00;100028.97;5070987;28;20052;-82
2022/11/09 10:24:12;;;;;;;2.42;0.80;;;12.80;99.90;;;11.66;100.00;100033.97;5062439;28;20155;-82
2022/11/09 10:26:43;;;;;;;3.05;0.80;;;12.90;99.90;;;11.84;100.00;100043.09;5055824;28;20040;-81